Jamestown Regional Airport
KJMS : now visible

Airfield :











YOU CAN JOIN US ON...

 
LOGIN :

Register | Disclaimer

   EN    FR    IT 

 









Legend :    VFR   Marginal VFR   IFR   Intensive IFR   Very Intensive IFR
Visi :
Ceiling :
>= 8 km
>= 3000ft
5 to 8 km
1000 to 3000 ft
1500m to 5 km
500 to 1000 ft
800 to 1500m
200 to 500 ft
< 800m
< 200 ft
Symbols :   Thunderstorms  Fog  Heavy snow  Heavy precipitations  Wind > 20 kt






- Airport Elevation : 1500 ft
- IATA code : JMS


KJMS - Jamestown Regional

CURRENT METAR :
  • 281556Z AUTO 06006KT 10SM CLR 04/01 A2985 RMK AO2 SLP123 T00440006

EXPIRED METARs :
  • 281456Z AUTO 02005KT 9SM FEW002 02/01 A2985 RMK AO2 SLP125 T00170011 51001
  • 281447Z AUTO 04005KT 7SM SCT002 01/01 A2985 RMK AO2 T00110006
  • 281442Z AUTO 05004KT 2 1/2SM BR BKN002 01/00 A2985 RMK AO2 T00060000
  • 281427Z AUTO 03004KT 3/4SM BR VV002 00/M01 A2985 RMK AO2 T00001006

TAF KJMS
Valid from the 28 at 15:00 until the 29 at 12:00 UTC


281517Z 2815/2912 05005KT P6SM SCT250
FM282000 03009KT P6SM FEW250
FM290100 01005KT P6SM SKC
FM290600 33005KT P6SM SKC



MET'MAP, your aeronautical weather chart ! - Copyright ORBIFLY December 2007 - Disclaimer

ORBIFLY MET'MAP TEAM :

Programming & Development : Alexandra Zaïnal
Concept & original design : Baudouin d'Aumeries
Assistance for programming : Marc-Olivier Méhu
Technical & hardware support : Manuel Goepfert

Contact : metmap@orbifly.com




SOURCES & CREDITS :

   NOAA       Earth
Advisory